sensor_id;sensor_type;location;lat;lon;timestamp;P1;durP1;ratioP1;P2;durP2;ratioP2
16127;SDS011;8168;49.036;7.690;2023-05-07T00:00:49;2.57;;;1.40;;
16127;SDS011;8168;49.036;7.690;2023-05-07T00:03:21;2.47;;;1.67;;
16127;SDS011;8168;49.036;7.690;2023-05-07T00:05:52;1.53;;;1.43;;
16127;SDS011;8168;49.036;7.690;2023-05-07T00:08:25;1.80;;;1.50;;
16127;SDS011;8168;49.036;7.690;2023-05-07T00:10:56;2.87;;;1.60;;
16127;SDS011;8168;49.036;7.690;2023-05-07T00:13:27;2.10;;;1.57;;
16127;SDS011;8168;49.036;7.690;2023-05-07T00:16:03;1.73;;;1.60;;
16127;SDS011;8168;49.036;7.690;2023-05-07T00:18:34;1.50;;;1.40;;
16127;SDS011;8168;49.036;7.690;2023-05-07T00:21:04;2.73;;;1.47;;
16127;SDS011;8168;49.036;7.690;2023-05-07T00:23:35;2.00;;;1.80;;
16127;SDS011;8168;49.036;7.690;2023-05-07T00:26:05;1.50;;;1.40;;
16127;SDS011;8168;49.036;7.690;2023-05-07T00:28:36;1.60;;;1.50;;
16127;SDS011;8168;49.036;7.690;2023-05-07T00:31:07;3.17;;;1.80;;
16127;SDS011;8168;49.036;7.690;2023-05-07T00:33:38;2.33;;;2.00;;
16127;SDS011;8168;49.036;7.690;2023-05-07T00:36:09;1.50;;;1.40;;
16127;SDS011;8168;49.036;7.690;2023-05-07T00:38:39;3.53;;;1.50;;
16127;SDS011;8168;49.036;7.690;2023-05-07T00:41:10;1.70;;;1.60;;
16127;SDS011;8168;49.036;7.690;2023-05-07T00:43:41;4.37;;;1.53;;
16127;SDS011;8168;49.036;7.690;2023-05-07T00:46:12;1.50;;;1.40;;
16127;SDS011;8168;49.036;7.690;2023-05-07T00:48:45;1.83;;;1.57;;
16127;SDS011;8168;49.036;7.690;2023-05-07T00:51:17;1.60;;;1.50;;
16127;SDS011;8168;49.036;7.690;2023-05-07T00:53:48;1.53;;;1.43;;
16127;SDS011;8168;49.036;7.690;2023-05-07T00:56:20;2.23;;;1.60;;
16127;SDS011;8168;49.036;7.690;2023-05-07T00:58:51;1.80;;;1.70;;
16127;SDS011;8168;49.036;7.690;2023-05-07T01:01:22;3.97;;;2.00;;
16127;SDS011;8168;49.036;7.690;2023-05-07T01:03:52;1.57;;;1.47;;
16127;SDS011;8168;49.036;7.690;2023-05-07T01:06:24;1.40;;;1.30;;
16127;SDS011;8168;49.036;7.690;2023-05-07T01:08:57;3.10;;;1.87;;
16127;SDS011;8168;49.036;7.690;2023-05-07T01:11:28;1.93;;;1.83;;
16127;SDS011;8168;49.036;7.690;2023-05-07T01:13:59;5.07;;;1.87;;
16127;SDS011;8168;49.036;7.690;2023-05-07T01:16:30;2.07;;;1.80;;
16127;SDS011;8168;49.036;7.690;2023-05-07T01:19:01;2.10;;;1.70;;
16127;SDS011;8168;49.036;7.690;2023-05-07T01:21:32;2.07;;;1.80;;
16127;SDS011;8168;49.036;7.690;2023-05-07T01:24:04;1.57;;;1.43;;
16127;SDS011;8168;49.036;7.690;2023-05-07T01:26:36;2.80;;;1.90;;
16127;SDS011;8168;49.036;7.690;2023-05-07T01:29:07;3.57;;;1.90;;
16127;SDS011;8168;49.036;7.690;2023-05-07T01:31:38;1.73;;;1.60;;
16127;SDS011;8168;49.036;7.690;2023-05-07T01:34:11;1.63;;;1.53;;
16127;SDS011;8168;49.036;7.690;2023-05-07T01:36:43;1.87;;;1.70;;
16127;SDS011;8168;49.036;7.690;2023-05-07T01:39:15;1.67;;;1.57;;
16127;SDS011;8168;49.036;7.690;2023-05-07T01:41:46;2.27;;;2.03;;
16127;SDS011;8168;49.036;7.690;2023-05-07T01:44:17;3.67;;;2.10;;
16127;SDS011;8168;49.036;7.690;2023-05-07T01:46:49;2.40;;;2.20;;
16127;SDS011;8168;49.036;7.690;2023-05-07T01:49:20;2.03;;;1.83;;
16127;SDS011;8168;49.036;7.690;2023-05-07T01:51:50;2.03;;;1.90;;
16127;SDS011;8168;49.036;7.690;2023-05-07T01:54:27;2.70;;;2.20;;
16127;SDS011;8168;49.036;7.690;2023-05-07T01:56:58;2.50;;;2.27;;
16127;SDS011;8168;49.036;7.690;2023-05-07T01:59:28;2.80;;;1.97;;
16127;SDS011;8168;49.036;7.690;2023-05-07T02:01:59;2.20;;;2.00;;
16127;SDS011;8168;49.036;7.690;2023-05-07T02:04:30;2.90;;;2.43;;
16127;SDS011;8168;49.036;7.690;2023-05-07T02:07:01;2.60;;;2.17;;
16127;SDS011;8168;49.036;7.690;2023-05-07T02:09:32;4.17;;;1.90;;
16127;SDS011;8168;49.036;7.690;2023-05-07T02:12:02;2.23;;;2.03;;
16127;SDS011;8168;49.036;7.690;2023-05-07T02:14:33;2.03;;;1.83;;
16127;SDS011;8168;49.036;7.690;2023-05-07T02:17:04;1.93;;;1.73;;
16127;SDS011;8168;49.036;7.690;2023-05-07T02:19:34;3.40;;;2.10;;
16127;SDS011;8168;49.036;7.690;2023-05-07T02:22:05;2.43;;;1.77;;
16127;SDS011;8168;49.036;7.690;2023-05-07T02:24:36;2.17;;;1.90;;
16127;SDS011;8168;49.036;7.690;2023-05-07T02:27:07;5.20;;;2.00;;
16127;SDS011;8168;49.036;7.690;2023-05-07T02:29:38;1.70;;;1.60;;
16127;SDS011;8168;49.036;7.690;2023-05-07T02:32:09;2.00;;;1.80;;
16127;SDS011;8168;49.036;7.690;2023-05-07T02:34:39;3.57;;;2.10;;
16127;SDS011;8168;49.036;7.690;2023-05-07T02:37:10;2.53;;;2.17;;
16127;SDS011;8168;49.036;7.690;2023-05-07T02:39:40;2.00;;;1.80;;
16127;SDS011;8168;49.036;7.690;2023-05-07T02:42:11;1.80;;;1.70;;
16127;SDS011;8168;49.036;7.690;2023-05-07T02:44:41;2.23;;;2.03;;
16127;SDS011;8168;49.036;7.690;2023-05-07T02:47:13;2.03;;;1.83;;
16127;SDS011;8168;49.036;7.690;2023-05-07T02:49:45;1.67;;;1.53;;
16127;SDS011;8168;49.036;7.690;2023-05-07T02:52:15;1.67;;;1.57;;
16127;SDS011;8168;49.036;7.690;2023-05-07T02:54:46;2.03;;;1.60;;
16127;SDS011;8168;49.036;7.690;2023-05-07T02:57:16;2.03;;;1.83;;
16127;SDS011;8168;49.036;7.690;2023-05-07T02:59:47;1.70;;;1.60;;
16127;SDS011;8168;49.036;7.690;2023-05-07T03:02:17;1.83;;;1.73;;
16127;SDS011;8168;49.036;7.690;2023-05-07T03:04:48;1.87;;;1.73;;
16127;SDS011;8168;49.036;7.690;2023-05-07T03:07:19;1.80;;;1.70;;
16127;SDS011;8168;49.036;7.690;2023-05-07T03:09:49;2.20;;;2.00;;
16127;SDS011;8168;49.036;7.690;2023-05-07T03:12:20;1.83;;;1.73;;
16127;SDS011;8168;49.036;7.690;2023-05-07T03:14:51;1.97;;;1.80;;
16127;SDS011;8168;49.036;7.690;2023-05-07T03:17:21;2.20;;;1.80;;
16127;SDS011;8168;49.036;7.690;2023-05-07T03:19:52;2.40;;;1.67;;
16127;SDS011;8168;49.036;7.690;2023-05-07T03:22:23;1.97;;;1.87;;
16127;SDS011;8168;49.036;7.690;2023-05-07T03:24:53;2.27;;;2.07;;
16127;SDS011;8168;49.036;7.690;2023-05-07T03:27:24;2.17;;;1.97;;
16127;SDS011;8168;49.036;7.690;2023-05-07T03:29:54;1.70;;;1.60;;
16127;SDS011;8168;49.036;7.690;2023-05-07T03:32:25;1.83;;;1.73;;
16127;SDS011;8168;49.036;7.690;2023-05-07T03:34:56;2.17;;;1.87;;
16127;SDS011;8168;49.036;7.690;2023-05-07T03:37:29;1.73;;;1.63;;
16127;SDS011;8168;49.036;7.690;2023-05-07T03:40:00;1.97;;;1.77;;
16127;SDS011;8168;49.036;7.690;2023-05-07T03:42:31;1.60;;;1.50;;
16127;SDS011;8168;49.036;7.690;2023-05-07T03:45:01;1.90;;;1.80;;
16127;SDS011;8168;49.036;7.690;2023-05-07T03:47:32;1.70;;;1.60;;
16127;SDS011;8168;49.036;7.690;2023-05-07T03:50:03;2.43;;;1.50;;
16127;SDS011;8168;49.036;7.690;2023-05-07T03:52:34;2.43;;;1.87;;
16127;SDS011;8168;49.036;7.690;2023-05-07T03:55:04;2.23;;;1.57;;
16127;SDS011;8168;49.036;7.690;2023-05-07T03:57:36;1.97;;;1.77;;
16127;SDS011;8168;49.036;7.690;2023-05-07T04:00:06;2.10;;;1.80;;
16127;SDS011;8168;49.036;7.690;2023-05-07T04:02:38;1.60;;;1.50;;
16127;SDS011;8168;49.036;7.690;2023-05-07T04:05:08;1.67;;;1.53;;
16127;SDS011;8168;49.036;7.690;2023-05-07T04:07:39;2.23;;;1.90;;
16127;SDS011;8168;49.036;7.690;2023-05-07T04:10:10;2.77;;;1.43;;
16127;SDS011;8168;49.036;7.690;2023-05-07T04:12:40;2.20;;;1.80;;
16127;SDS011;8168;49.036;7.690;2023-05-07T04:15:11;1.73;;;1.63;;
16127;SDS011;8168;49.036;7.690;2023-05-07T04:17:41;1.50;;;1.40;;
16127;SDS011;8168;49.036;7.690;2023-05-07T04:20:14;3.63;;;1.70;;
16127;SDS011;8168;49.036;7.690;2023-05-07T04:22:46;2.23;;;2.03;;
16127;SDS011;8168;49.036;7.690;2023-05-07T04:25:16;2.30;;;2.10;;
16127;SDS011;8168;49.036;7.690;2023-05-07T04:27:47;2.10;;;1.90;;
16127;SDS011;8168;49.036;7.690;2023-05-07T04:30:18;1.70;;;1.50;;
16127;SDS011;8168;49.036;7.690;2023-05-07T04:32:49;1.97;;;1.83;;
16127;SDS011;8168;49.036;7.690;2023-05-07T04:35:20;1.67;;;1.57;;
16127;SDS011;8168;49.036;7.690;2023-05-07T04:37:51;1.70;;;1.60;;
16127;SDS011;8168;49.036;7.690;2023-05-07T04:40:21;1.70;;;1.60;;
16127;SDS011;8168;49.036;7.690;2023-05-07T04:42:52;3.37;;;1.40;;
16127;SDS011;8168;49.036;7.690;2023-05-07T04:45:23;1.80;;;1.70;;
16127;SDS011;8168;49.036;7.690;2023-05-07T04:47:53;1.97;;;1.80;;
16127;SDS011;8168;49.036;7.690;2023-05-07T04:50:24;1.80;;;1.70;;
16127;SDS011;8168;49.036;7.690;2023-05-07T04:52:55;1.73;;;1.63;;
16127;SDS011;8168;49.036;7.690;2023-05-07T04:55:26;1.60;;;1.50;;
16127;SDS011;8168;49.036;7.690;2023-05-07T04:57:56;6.00;;;2.03;;
16127;SDS011;8168;49.036;7.690;2023-05-07T05:00:27;2.67;;;2.00;;
16127;SDS011;8168;49.036;7.690;2023-05-07T05:02:58;2.00;;;1.70;;
16127;SDS011;8168;49.036;7.690;2023-05-07T05:05:28;1.87;;;1.77;;
16127;SDS011;8168;49.036;7.690;2023-05-07T05:07:59;2.00;;;1.80;;
16127;SDS011;8168;49.036;7.690;2023-05-07T05:10:30;2.40;;;2.20;;
16127;SDS011;8168;49.036;7.690;2023-05-07T05:13:00;1.93;;;1.80;;
16127;SDS011;8168;49.036;7.690;2023-05-07T05:15:31;1.97;;;1.70;;
16127;SDS011;8168;49.036;7.690;2023-05-07T05:18:01;2.70;;;2.50;;
16127;SDS011;8168;49.036;7.690;2023-05-07T05:20:32;3.77;;;3.07;;
16127;SDS011;8168;49.036;7.690;2023-05-07T05:23:03;5.07;;;3.37;;
16127;SDS011;8168;49.036;7.690;2023-05-07T05:25:33;3.63;;;2.90;;
16127;SDS011;8168;49.036;7.690;2023-05-07T05:28:04;3.63;;;2.90;;
16127;SDS011;8168;49.036;7.690;2023-05-07T05:30:35;6.13;;;2.70;;
16127;SDS011;8168;49.036;7.690;2023-05-07T05:33:05;3.10;;;2.80;;
16127;SDS011;8168;49.036;7.690;2023-05-07T05:35:36;3.27;;;2.97;;
16127;SDS011;8168;49.036;7.690;2023-05-07T05:38:06;2.50;;;2.30;;
16127;SDS011;8168;49.036;7.690;2023-05-07T05:40:37;4.00;;;2.40;;
16127;SDS011;8168;49.036;7.690;2023-05-07T05:43:08;3.63;;;2.60;;
16127;SDS011;8168;49.036;7.690;2023-05-07T05:45:38;2.90;;;2.53;;
16127;SDS011;8168;49.036;7.690;2023-05-07T05:48:09;2.47;;;2.27;;
16127;SDS011;8168;49.036;7.690;2023-05-07T05:50:41;2.27;;;2.07;;
16127;SDS011;8168;49.036;7.690;2023-05-07T05:53:12;3.10;;;2.80;;
16127;SDS011;8168;49.036;7.690;2023-05-07T05:55:42;3.20;;;2.90;;
16127;SDS011;8168;49.036;7.690;2023-05-07T05:58:13;2.53;;;2.33;;
16127;SDS011;8168;49.036;7.690;2023-05-07T06:00:45;3.60;;;2.90;;
16127;SDS011;8168;49.036;7.690;2023-05-07T06:03:16;2.60;;;2.40;;
16127;SDS011;8168;49.036;7.690;2023-05-07T06:05:47;2.90;;;2.70;;
16127;SDS011;8168;49.036;7.690;2023-05-07T06:08:18;2.70;;;2.50;;
16127;SDS011;8168;49.036;7.690;2023-05-07T06:10:48;2.87;;;2.57;;
16127;SDS011;8168;49.036;7.690;2023-05-07T06:13:19;5.27;;;3.40;;
16127;SDS011;8168;49.036;7.690;2023-05-07T06:15:50;2.37;;;2.17;;
16127;SDS011;8168;49.036;7.690;2023-05-07T06:18:20;3.10;;;2.80;;
16127;SDS011;8168;49.036;7.690;2023-05-07T06:20:51;3.90;;;2.87;;
16127;SDS011;8168;49.036;7.690;2023-05-07T06:23:22;2.60;;;2.40;;
16127;SDS011;8168;49.036;7.690;2023-05-07T06:25:53;2.60;;;2.40;;
16127;SDS011;8168;49.036;7.690;2023-05-07T06:28:23;2.83;;;2.53;;
16127;SDS011;8168;49.036;7.690;2023-05-07T06:30:54;2.30;;;2.10;;
16127;SDS011;8168;49.036;7.690;2023-05-07T06:33:25;3.40;;;2.53;;
16127;SDS011;8168;49.036;7.690;2023-05-07T06:35:55;2.70;;;2.50;;
16127;SDS011;8168;49.036;7.690;2023-05-07T06:38:26;2.60;;;2.40;;
16127;SDS011;8168;49.036;7.690;2023-05-07T06:40:56;2.50;;;2.30;;
16127;SDS011;8168;49.036;7.690;2023-05-07T06:43:27;2.40;;;2.20;;
16127;SDS011;8168;49.036;7.690;2023-05-07T06:45:58;2.17;;;1.97;;
16127;SDS011;8168;49.036;7.690;2023-05-07T06:48:28;2.70;;;2.50;;
16127;SDS011;8168;49.036;7.690;2023-05-07T06:50:59;4.13;;;2.57;;
16127;SDS011;8168;49.036;7.690;2023-05-07T06:53:29;2.50;;;2.30;;
16127;SDS011;8168;49.036;7.690;2023-05-07T06:56:00;2.83;;;2.37;;
16127;SDS011;8168;49.036;7.690;2023-05-07T06:58:31;2.60;;;2.40;;
16127;SDS011;8168;49.036;7.690;2023-05-07T07:01:02;2.80;;;2.40;;
16127;SDS011;8168;49.036;7.690;2023-05-07T07:03:32;2.57;;;2.37;;
16127;SDS011;8168;49.036;7.690;2023-05-07T07:06:03;2.50;;;2.30;;
16127;SDS011;8168;49.036;7.690;2023-05-07T07:08:35;3.70;;;2.20;;
16127;SDS011;8168;49.036;7.690;2023-05-07T07:11:06;4.80;;;2.67;;
16127;SDS011;8168;49.036;7.690;2023-05-07T07:13:37;2.40;;;2.20;;
16127;SDS011;8168;49.036;7.690;2023-05-07T07:16:07;3.03;;;2.53;;
16127;SDS011;8168;49.036;7.690;2023-05-07T07:18:38;3.37;;;2.40;;
16127;SDS011;8168;49.036;7.690;2023-05-07T07:21:09;4.73;;;2.20;;
16127;SDS011;8168;49.036;7.690;2023-05-07T07:23:39;2.70;;;2.10;;
16127;SDS011;8168;49.036;7.690;2023-05-07T07:26:10;2.57;;;2.07;;
16127;SDS011;8168;49.036;7.690;2023-05-07T07:28:44;3.73;;;1.97;;
16127;SDS011;8168;49.036;7.690;2023-05-07T07:31:15;2.37;;;2.10;;
16127;SDS011;8168;49.036;7.690;2023-05-07T07:33:46;5.87;;;1.90;;
16127;SDS011;8168;49.036;7.690;2023-05-07T07:36:17;2.13;;;1.93;;
16127;SDS011;8168;49.036;7.690;2023-05-07T07:38:47;4.43;;;1.90;;
16127;SDS011;8168;49.036;7.690;2023-05-07T07:41:18;3.37;;;2.13;;
16127;SDS011;8168;49.036;7.690;2023-05-07T07:43:48;2.10;;;1.80;;
16127;SDS011;8168;49.036;7.690;2023-05-07T07:46:19;2.27;;;2.07;;
16127;SDS011;8168;49.036;7.690;2023-05-07T07:48:49;1.60;;;1.50;;
16127;SDS011;8168;49.036;7.690;2023-05-07T07:51:20;2.17;;;1.70;;
16127;SDS011;8168;49.036;7.690;2023-05-07T07:53:51;1.70;;;1.60;;
16127;SDS011;8168;49.036;7.690;2023-05-07T07:56:21;2.60;;;1.73;;
16127;SDS011;8168;49.036;7.690;2023-05-07T07:58:52;2.37;;;1.70;;
16127;SDS011;8168;49.036;7.690;2023-05-07T08:01:22;2.87;;;1.70;;
16127;SDS011;8168;49.036;7.690;2023-05-07T08:03:53;3.07;;;2.00;;
16127;SDS011;8168;49.036;7.690;2023-05-07T08:06:24;2.20;;;1.87;;
16127;SDS011;8168;49.036;7.690;2023-05-07T08:08:55;1.77;;;1.53;;
16127;SDS011;8168;49.036;7.690;2023-05-07T08:11:26;2.63;;;1.70;;
16127;SDS011;8168;49.036;7.690;2023-05-07T08:13:57;2.90;;;1.80;;
16127;SDS011;8168;49.036;7.690;2023-05-07T08:16:28;2.53;;;1.70;;
16127;SDS011;8168;49.036;7.690;2023-05-07T08:18:59;1.70;;;1.60;;
16127;SDS011;8168;49.036;7.690;2023-05-07T08:21:29;1.93;;;1.30;;
16127;SDS011;8168;49.036;7.690;2023-05-07T08:24:00;4.43;;;1.90;;
16127;SDS011;8168;49.036;7.690;2023-05-07T08:26:31;4.80;;;2.03;;
16127;SDS011;8168;49.036;7.690;2023-05-07T08:29:02;1.60;;;1.50;;
16127;SDS011;8168;49.036;7.690;2023-05-07T08:31:33;3.03;;;2.10;;
16127;SDS011;8168;49.036;7.690;2023-05-07T08:34:04;1.93;;;1.60;;
16127;SDS011;8168;49.036;7.690;2023-05-07T08:36:35;1.60;;;1.50;;
16127;SDS011;8168;49.036;7.690;2023-05-07T08:39:05;2.10;;;1.90;;
16127;SDS011;8168;49.036;7.690;2023-05-07T08:41:36;3.47;;;1.70;;
16127;SDS011;8168;49.036;7.690;2023-05-07T08:44:07;1.60;;;1.50;;
16127;SDS011;8168;49.036;7.690;2023-05-07T08:46:43;1.60;;;1.50;;
16127;SDS011;8168;49.036;7.690;2023-05-07T08:49:18;2.70;;;1.70;;
16127;SDS011;8168;49.036;7.690;2023-05-07T08:51:48;3.77;;;1.70;;
16127;SDS011;8168;49.036;7.690;2023-05-07T08:54:20;2.00;;;1.70;;
16127;SDS011;8168;49.036;7.690;2023-05-07T08:56:51;1.60;;;1.50;;
16127;SDS011;8168;49.036;7.690;2023-05-07T08:59:21;1.37;;;1.27;;
16127;SDS011;8168;49.036;7.690;2023-05-07T09:01:52;1.63;;;1.53;;
16127;SDS011;8168;49.036;7.690;2023-05-07T09:04:23;1.67;;;1.57;;
16127;SDS011;8168;49.036;7.690;2023-05-07T09:06:53;2.70;;;1.50;;
16127;SDS011;8168;49.036;7.690;2023-05-07T09:09:25;1.57;;;1.47;;
16127;SDS011;8168;49.036;7.690;2023-05-07T09:11:57;1.93;;;1.73;;
16127;SDS011;8168;49.036;7.690;2023-05-07T09:14:30;1.77;;;1.60;;
16127;SDS011;8168;49.036;7.690;2023-05-07T09:17:01;1.77;;;1.63;;
16127;SDS011;8168;49.036;7.690;2023-05-07T09:19:31;3.83;;;1.73;;
16127;SDS011;8168;49.036;7.690;2023-05-07T09:22:03;1.70;;;1.60;;
16127;SDS011;8168;49.036;7.690;2023-05-07T09:24:37;1.80;;;1.70;;
16127;SDS011;8168;49.036;7.690;2023-05-07T09:27:08;1.97;;;1.60;;
16127;SDS011;8168;49.036;7.690;2023-05-07T09:29:40;1.87;;;1.60;;
16127;SDS011;8168;49.036;7.690;2023-05-07T09:32:10;2.23;;;1.50;;
16127;SDS011;8168;49.036;7.690;2023-05-07T09:34:41;5.63;;;2.00;;
16127;SDS011;8168;49.036;7.690;2023-05-07T09:37:12;2.33;;;1.80;;
16127;SDS011;8168;49.036;7.690;2023-05-07T09:39:45;1.57;;;1.47;;
16127;SDS011;8168;49.036;7.690;2023-05-07T09:42:22;1.73;;;1.63;;
16127;SDS011;8168;49.036;7.690;2023-05-07T09:44:57;2.80;;;1.80;;
16127;SDS011;8168;49.036;7.690;2023-05-07T09:47:29;1.90;;;1.70;;
16127;SDS011;8168;49.036;7.690;2023-05-07T09:50:04;1.55;;;1.45;;
16127;SDS011;8168;49.036;7.690;2023-05-07T09:52:38;3.70;;;1.70;;
16127;SDS011;8168;49.036;7.690;2023-05-07T09:55:10;2.43;;;1.73;;
16127;SDS011;8168;49.036;7.690;2023-05-07T09:57:42;2.03;;;1.83;;
16127;SDS011;8168;49.036;7.690;2023-05-07T10:00:15;1.63;;;1.42;;
16127;SDS011;8168;49.036;7.690;2023-05-07T10:02:48;2.10;;;1.75;;
16127;SDS011;8168;49.036;7.690;2023-05-07T10:05:22;1.60;;;1.50;;
16127;SDS011;8168;49.036;7.690;2023-05-07T10:07:52;3.05;;;1.67;;
16127;SDS011;8168;49.036;7.690;2023-05-07T10:10:24;1.60;;;1.50;;
16127;SDS011;8168;49.036;7.690;2023-05-07T10:12:55;2.85;;;1.67;;
16127;SDS011;8168;49.036;7.690;2023-05-07T10:15:26;1.70;;;1.60;;
16127;SDS011;8168;49.036;7.690;2023-05-07T10:17:58;1.77;;;1.67;;
16127;SDS011;8168;49.036;7.690;2023-05-07T10:20:29;1.65;;;1.55;;
16127;SDS011;8168;49.036;7.690;2023-05-07T10:23:00;1.80;;;1.52;;
16127;SDS011;8168;49.036;7.690;2023-05-07T10:25:34;2.00;;;1.80;;
16127;SDS011;8168;49.036;7.690;2023-05-07T10:28:06;1.58;;;1.40;;
16127;SDS011;8168;49.036;7.690;2023-05-07T10:33:42;2.05;;;1.60;;
16127;SDS011;8168;49.036;7.690;2023-05-07T10:36:16;1.60;;;1.50;;
16127;SDS011;8168;49.036;7.690;2023-05-07T10:38:48;2.55;;;1.70;;
16127;SDS011;8168;49.036;7.690;2023-05-07T10:41:19;1.85;;;1.75;;
16127;SDS011;8168;49.036;7.690;2023-05-07T10:43:51;4.05;;;1.70;;
16127;SDS011;8168;49.036;7.690;2023-05-07T10:46:22;1.95;;;1.75;;
16127;SDS011;8168;49.036;7.690;2023-05-07T10:51:33;2.63;;;1.75;;
16127;SDS011;8168;49.036;7.690;2023-05-07T10:56:42;2.00;;;1.83;;
16127;SDS011;8168;49.036;7.690;2023-05-07T11:01:57;2.45;;;2.30;;
16127;SDS011;8168;49.036;7.690;2023-05-07T11:04:29;2.15;;;1.98;;
16127;SDS011;8168;49.036;7.690;2023-05-07T11:15:09;2.92;;;2.17;;
16127;SDS011;8168;49.036;7.690;2023-05-07T11:17:54;3.05;;;2.03;;
16127;SDS011;8168;49.036;7.690;2023-05-07T11:20:50;1.83;;;1.73;;
16127;SDS011;8168;49.036;7.690;2023-05-07T11:26:08;1.80;;;1.65;;
16127;SDS011;8168;49.036;7.690;2023-05-07T11:28:40;2.30;;;2.03;;
16127;SDS011;8168;49.036;7.690;2023-05-07T11:31:12;2.10;;;1.90;;
16127;SDS011;8168;49.036;7.690;2023-05-07T11:33:43;1.80;;;1.70;;
16127;SDS011;8168;49.036;7.690;2023-05-07T11:36:14;2.35;;;1.73;;
16127;SDS011;8168;49.036;7.690;2023-05-07T11:38:45;2.47;;;1.60;;
16127;SDS011;8168;49.036;7.690;2023-05-07T11:41:16;1.88;;;1.77;;
16127;SDS011;8168;49.036;7.690;2023-05-07T11:43:57;1.95;;;1.65;;
16127;SDS011;8168;49.036;7.690;2023-05-07T11:46:29;1.60;;;1.50;;
16127;SDS011;8168;49.036;7.690;2023-05-07T11:49:00;2.90;;;1.63;;
16127;SDS011;8168;49.036;7.690;2023-05-07T11:51:31;1.63;;;1.52;;
16127;SDS011;8168;49.036;7.690;2023-05-07T11:54:03;4.47;;;1.70;;
16127;SDS011;8168;49.036;7.690;2023-05-07T11:56:38;1.60;;;1.50;;
16127;SDS011;8168;49.036;7.690;2023-05-07T11:59:09;1.98;;;1.60;;
16127;SDS011;8168;49.036;7.690;2023-05-07T12:01:39;1.80;;;1.70;;
16127;SDS011;8168;49.036;7.690;2023-05-07T12:04:10;1.92;;;1.73;;
16127;SDS011;8168;49.036;7.690;2023-05-07T12:06:40;1.83;;;1.50;;
16127;SDS011;8168;49.036;7.690;2023-05-07T12:09:11;2.10;;;1.50;;
16127;SDS011;8168;49.036;7.690;2023-05-07T12:11:42;1.73;;;1.60;;
16127;SDS011;8168;49.036;7.690;2023-05-07T12:14:16;1.73;;;1.63;;
16127;SDS011;8168;49.036;7.690;2023-05-07T12:16:46;2.63;;;1.60;;
16127;SDS011;8168;49.036;7.690;2023-05-07T12:19:17;1.90;;;1.80;;
16127;SDS011;8168;49.036;7.690;2023-05-07T12:21:48;2.45;;;1.80;;
16127;SDS011;8168;49.036;7.690;2023-05-07T12:24:19;2.20;;;1.80;;
16127;SDS011;8168;49.036;7.690;2023-05-07T12:26:50;2.05;;;1.92;;
16127;SDS011;8168;49.036;7.690;2023-05-07T12:29:21;2.50;;;1.65;;
16127;SDS011;8168;49.036;7.690;2023-05-07T12:31:52;2.28;;;2.00;;
16127;SDS011;8168;49.036;7.690;2023-05-07T12:34:23;2.63;;;2.28;;
16127;SDS011;8168;49.036;7.690;2023-05-07T12:36:54;2.08;;;1.92;;
16127;SDS011;8168;49.036;7.690;2023-05-07T12:39:25;2.58;;;2.03;;
16127;SDS011;8168;49.036;7.690;2023-05-07T12:41:57;2.38;;;2.08;;
16127;SDS011;8168;49.036;7.690;2023-05-07T12:44:29;2.28;;;1.90;;
16127;SDS011;8168;49.036;7.690;2023-05-07T12:47:01;2.22;;;1.88;;
16127;SDS011;8168;49.036;7.690;2023-05-07T12:49:34;1.60;;;1.50;;
16127;SDS011;8168;49.036;7.690;2023-05-07T12:52:07;2.53;;;1.75;;
16127;SDS011;8168;49.036;7.690;2023-05-07T12:54:38;1.63;;;1.52;;
16127;SDS011;8168;49.036;7.690;2023-05-07T12:57:09;1.70;;;1.60;;
16127;SDS011;8168;49.036;7.690;2023-05-07T12:59:40;2.63;;;1.70;;
16127;SDS011;8168;49.036;7.690;2023-05-07T13:02:11;2.13;;;1.90;;
16127;SDS011;8168;49.036;7.690;2023-05-07T13:04:42;2.08;;;1.60;;
16127;SDS011;8168;49.036;7.690;2023-05-07T13:07:13;2.92;;;2.00;;
16127;SDS011;8168;49.036;7.690;2023-05-07T13:09:43;1.77;;;1.67;;
16127;SDS011;8168;49.036;7.690;2023-05-07T13:12:14;1.75;;;1.65;;
16127;SDS011;8168;49.036;7.690;2023-05-07T13:14:45;1.73;;;1.63;;
16127;SDS011;8168;49.036;7.690;2023-05-07T13:17:15;2.00;;;1.90;;
16127;SDS011;8168;49.036;7.690;2023-05-07T13:19:46;1.83;;;1.73;;
16127;SDS011;8168;49.036;7.690;2023-05-07T13:22:17;2.25;;;1.80;;
16127;SDS011;8168;49.036;7.690;2023-05-07T13:24:47;2.15;;;1.98;;
16127;SDS011;8168;49.036;7.690;2023-05-07T13:27:18;2.85;;;2.10;;
16127;SDS011;8168;49.036;7.690;2023-05-07T13:29:49;1.95;;;1.70;;
16127;SDS011;8168;49.036;7.690;2023-05-07T13:32:20;1.70;;;1.60;;
16127;SDS011;8168;49.036;7.690;2023-05-07T13:34:50;3.50;;;2.03;;
16127;SDS011;8168;49.036;7.690;2023-05-07T13:37:21;1.97;;;1.67;;
16127;SDS011;8168;49.036;7.690;2023-05-07T13:39:51;3.55;;;1.98;;
16127;SDS011;8168;49.036;7.690;2023-05-07T13:42:22;1.88;;;1.70;;
16127;SDS011;8168;49.036;7.690;2023-05-07T13:44:53;4.00;;;1.60;;
16127;SDS011;8168;49.036;7.690;2023-05-07T13:47:23;2.40;;;1.80;;
16127;SDS011;8168;49.036;7.690;2023-05-07T13:49:54;2.00;;;1.80;;
16127;SDS011;8168;49.036;7.690;2023-05-07T13:52:24;2.20;;;1.90;;
16127;SDS011;8168;49.036;7.690;2023-05-07T13:54:55;3.80;;;1.80;;
16127;SDS011;8168;49.036;7.690;2023-05-07T13:57:28;1.77;;;1.52;;
16127;SDS011;8168;49.036;7.690;2023-05-07T13:59:59;2.53;;;1.60;;
16127;SDS011;8168;49.036;7.690;2023-05-07T14:02:29;1.60;;;1.50;;
16127;SDS011;8168;49.036;7.690;2023-05-07T14:05:00;2.20;;;1.70;;
16127;SDS011;8168;49.036;7.690;2023-05-07T14:07:31;1.77;;;1.58;;
16127;SDS011;8168;49.036;7.690;2023-05-07T14:10:02;2.00;;;1.80;;
16127;SDS011;8168;49.036;7.690;2023-05-07T14:12:33;1.60;;;1.50;;
16127;SDS011;8168;49.036;7.690;2023-05-07T14:15:03;2.70;;;1.73;;
16127;SDS011;8168;49.036;7.690;2023-05-07T14:17:34;2.07;;;1.70;;
16127;SDS011;8168;49.036;7.690;2023-05-07T14:20:05;2.08;;;1.63;;
16127;SDS011;8168;49.036;7.690;2023-05-07T14:22:37;1.77;;;1.67;;
16127;SDS011;8168;49.036;7.690;2023-05-07T14:25:07;1.90;;;1.80;;
16127;SDS011;8168;49.036;7.690;2023-05-07T14:27:39;2.38;;;1.70;;
16127;SDS011;8168;49.036;7.690;2023-05-07T14:30:10;1.77;;;1.67;;
16127;SDS011;8168;49.036;7.690;2023-05-07T14:32:41;2.75;;;2.08;;
16127;SDS011;8168;49.036;7.690;2023-05-07T14:35:11;3.07;;;1.83;;
16127;SDS011;8168;49.036;7.690;2023-05-07T14:37:42;2.15;;;1.60;;
16127;SDS011;8168;49.036;7.690;2023-05-07T14:40:13;3.60;;;2.20;;
16127;SDS011;8168;49.036;7.690;2023-05-07T14:42:44;2.35;;;2.00;;
16127;SDS011;8168;49.036;7.690;2023-05-07T14:45:15;4.60;;;1.90;;
16127;SDS011;8168;49.036;7.690;2023-05-07T14:47:45;4.73;;;2.27;;
16127;SDS011;8168;49.036;7.690;2023-05-07T14:50:16;2.33;;;1.90;;
16127;SDS011;8168;49.036;7.690;2023-05-07T14:52:47;1.80;;;1.70;;
16127;SDS011;8168;49.036;7.690;2023-05-07T14:55:18;2.30;;;2.05;;
16127;SDS011;8168;49.036;7.690;2023-05-07T14:57:49;2.30;;;2.10;;
16127;SDS011;8168;49.036;7.690;2023-05-07T15:00:19;2.63;;;1.80;;
16127;SDS011;8168;49.036;7.690;2023-05-07T15:02:50;1.83;;;1.70;;
16127;SDS011;8168;49.036;7.690;2023-05-07T15:05:21;1.90;;;1.80;;
16127;SDS011;8168;49.036;7.690;2023-05-07T15:07:51;2.37;;;1.90;;
16127;SDS011;8168;49.036;7.690;2023-05-07T15:10:22;2.10;;;1.90;;
16127;SDS011;8168;49.036;7.690;2023-05-07T15:12:52;5.90;;;3.83;;
16127;SDS011;8168;49.036;7.690;2023-05-07T15:15:23;3.50;;;3.20;;
16127;SDS011;8168;49.036;7.690;2023-05-07T15:17:54;5.00;;;4.50;;
16127;SDS011;8168;49.036;7.690;2023-05-07T15:20:24;9.53;;;6.90;;
16127;SDS011;8168;49.036;7.690;2023-05-07T15:22:55;4.07;;;3.67;;
16127;SDS011;8168;49.036;7.690;2023-05-07T15:25:26;2.97;;;2.70;;
16127;SDS011;8168;49.036;7.690;2023-05-07T15:27:56;3.13;;;2.67;;
16127;SDS011;8168;49.036;7.690;2023-05-07T15:30:27;2.53;;;2.03;;
16127;SDS011;8168;49.036;7.690;2023-05-07T15:32:58;2.10;;;2.00;;
16127;SDS011;8168;49.036;7.690;2023-05-07T15:35:28;3.10;;;2.30;;
16127;SDS011;8168;49.036;7.690;2023-05-07T15:37:59;4.30;;;2.60;;
16127;SDS011;8168;49.036;7.690;2023-05-07T15:40:31;4.40;;;2.57;;
16127;SDS011;8168;49.036;7.690;2023-05-07T15:43:02;2.80;;;2.17;;
16127;SDS011;8168;49.036;7.690;2023-05-07T15:45:36;2.47;;;2.27;;